createdAt,value
2023-11-04T00:01:11.360Z,9.90
2023-11-04T00:03:46.196Z,9.90
2023-11-04T00:06:15.375Z,10.00
2023-11-04T00:09:17.140Z,10.10
2023-11-04T00:11:48.355Z,10.20
2023-11-04T00:14:18.693Z,10.20
2023-11-04T00:16:47.641Z,10.20
2023-11-04T00:19:16.885Z,10.10
2023-11-04T00:21:45.671Z,10.00
2023-11-04T00:24:14.854Z,10.00
2023-11-04T00:26:43.780Z,9.90
2023-11-04T00:29:12.562Z,9.90
2023-11-04T00:31:42.934Z,9.90
2023-11-04T00:34:11.741Z,10.00
2023-11-04T00:36:40.448Z,9.90
2023-11-04T00:39:10.840Z,9.90
2023-11-04T00:41:39.618Z,9.90
2023-11-04T00:44:08.546Z,10.00
2023-11-04T00:46:37.232Z,10.00
2023-11-04T00:49:07.758Z,10.00
2023-11-04T00:51:37.891Z,9.90
2023-11-04T00:54:07.441Z,9.90
2023-11-04T00:56:36.691Z,9.90
2023-11-04T00:59:05.339Z,9.90
2023-11-04T01:01:34.047Z,9.80
2023-11-04T01:04:02.931Z,9.80
2023-11-04T01:06:33.196Z,9.70
2023-11-04T01:09:01.879Z,9.70
2023-11-04T01:11:32.392Z,9.60
2023-11-04T01:14:01.035Z,9.70
2023-11-04T01:16:29.772Z,9.60
2023-11-04T01:18:58.424Z,9.50
2023-11-04T01:21:27.177Z,9.40
2023-11-04T01:23:57.499Z,9.40
2023-11-04T01:26:26.193Z,9.30
2023-11-04T01:28:54.893Z,9.30
2023-11-04T01:31:23.543Z,9.20
2023-11-04T01:33:52.357Z,9.20
2023-11-04T01:36:21.147Z,9.20
2023-11-04T01:38:49.818Z,9.10
2023-11-04T01:41:19.894Z,9.00
2023-11-04T01:43:48.625Z,9.00
2023-11-04T01:46:20.653Z,9.00
2023-11-04T01:48:49.450Z,8.90
2023-11-04T01:51:18.613Z,8.90
2023-11-04T01:53:51.867Z,8.80
2023-11-04T01:56:27.800Z,8.70
2023-11-04T01:58:58.960Z,8.70
2023-11-04T02:01:28.460Z,8.70
2023-11-04T02:03:57.278Z,8.60
2023-11-04T02:06:26.018Z,8.60
2023-11-04T02:08:56.409Z,8.60
2023-11-04T02:11:26.954Z,8.50
2023-11-04T02:13:55.521Z,8.60
2023-11-04T02:16:24.304Z,8.50
2023-11-04T02:18:53.232Z,8.50
2023-11-04T02:21:23.792Z,8.50
2023-11-04T02:23:52.385Z,8.50
2023-11-04T02:26:22.948Z,8.40
2023-11-04T02:28:51.651Z,8.40
2023-11-04T02:31:20.333Z,8.30
2023-11-04T02:33:49.200Z,8.20
2023-11-04T02:36:17.965Z,8.10
2023-11-04T02:38:48.060Z,8.00
2023-11-04T02:41:17.674Z,8.00
2023-11-04T02:43:46.405Z,7.90
2023-11-04T02:46:15.012Z,7.90
2023-11-04T02:48:43.903Z,7.80
2023-11-04T02:51:12.626Z,7.80
2023-11-04T02:53:41.393Z,7.80
2023-11-04T02:56:12.166Z,7.70
2023-11-04T02:58:40.845Z,7.80
2023-11-04T03:01:09.428Z,7.70
2023-11-04T03:03:38.131Z,7.80
2023-11-04T03:06:07.356Z,7.80
2023-11-04T03:08:36.100Z,7.80
2023-11-04T03:11:05.209Z,7.70
2023-11-04T03:13:36.724Z,7.70
2023-11-04T03:16:09.547Z,7.80
2023-11-04T03:18:49.636Z,7.80
2023-11-04T03:21:18.817Z,7.70
2023-11-04T03:23:54.545Z,7.70
2023-11-04T03:26:23.261Z,7.70
2023-11-04T03:28:53.277Z,7.80
2023-11-04T03:31:21.995Z,7.80
2023-11-04T03:33:50.716Z,7.80
2023-11-04T03:36:19.557Z,7.80
2023-11-04T03:38:48.253Z,7.80
2023-11-04T03:41:17.181Z,7.80
2023-11-04T03:43:45.886Z,7.80
2023-11-04T03:46:16.255Z,8.00
2023-11-04T03:48:45.119Z,7.90
2023-11-04T03:51:14.139Z,8.00
2023-11-04T03:53:45.980Z,8.00
2023-11-04T03:56:19.102Z,7.90
2023-11-04T03:58:47.871Z,7.90
2023-11-04T04:01:17.929Z,7.90
2023-11-04T04:03:46.885Z,7.90
2023-11-04T04:06:18.701Z,7.90
2023-11-04T04:08:47.749Z,7.90
2023-11-04T04:11:21.990Z,7.90
2023-11-04T04:13:50.707Z,7.90
2023-11-04T04:16:23.716Z,7.90
2023-11-04T04:18:53.211Z,7.90
2023-11-04T04:21:22.154Z,7.90
2023-11-04T04:23:51.091Z,7.90
2023-11-04T04:26:21.285Z,7.90
2023-11-04T04:28:50.201Z,7.90
2023-11-04T04:31:20.489Z,7.90
2023-11-04T04:33:49.404Z,7.90
2023-11-04T04:36:18.278Z,7.90
2023-11-04T04:38:46.937Z,8.00
2023-11-04T04:41:15.701Z,7.90
2023-11-04T04:43:44.602Z,8.00
2023-11-04T04:46:13.659Z,8.00
2023-11-04T04:48:43.883Z,8.00
2023-11-04T04:51:12.610Z,8.00
2023-11-04T04:53:41.238Z,8.00
2023-11-04T04:56:10.593Z,8.10
2023-11-04T04:58:39.252Z,8.10
2023-11-04T05:01:08.050Z,8.10
2023-11-04T05:03:36.702Z,8.10
2023-11-04T05:06:07.434Z,8.10
2023-11-04T05:08:36.080Z,8.20
2023-11-04T05:11:05.066Z,8.10
2023-11-04T05:13:33.692Z,8.10
2023-11-04T05:16:02.850Z,8.10
2023-11-04T05:18:31.644Z,8.10
2023-11-04T05:21:01.949Z,8.20
2023-11-04T05:23:32.551Z,8.20
2023-11-04T05:26:01.896Z,8.20
2023-11-04T05:28:33.217Z,8.30
2023-11-04T05:31:02.237Z,8.30
2023-11-04T05:33:31.045Z,8.30
2023-11-04T05:35:59.812Z,8.20
2023-11-04T05:38:29.238Z,8.20
2023-11-04T05:40:59.371Z,8.20
2023-11-04T05:43:28.191Z,8.30
2023-11-04T05:45:56.912Z,8.30
2023-11-04T05:48:25.981Z,8.30
2023-11-04T05:50:54.879Z,8.30
2023-11-04T05:53:23.504Z,8.30
2023-11-04T05:55:52.577Z,8.30
2023-11-04T05:58:22.626Z,8.40
2023-11-04T06:00:51.306Z,8.40
2023-11-04T06:03:20.000Z,8.40
2023-11-04T06:05:53.039Z,8.40
2023-11-04T06:08:21.961Z,8.40
2023-11-04T06:10:50.496Z,8.40
2023-11-04T06:13:19.475Z,8.40
2023-11-04T06:15:49.727Z,8.40
2023-11-04T06:18:19.112Z,8.40
2023-11-04T06:20:47.781Z,8.40
2023-11-04T06:23:16.365Z,8.50
2023-11-04T06:25:45.142Z,8.50
2023-11-04T06:28:14.319Z,8.60
2023-11-04T06:30:42.980Z,8.50
2023-11-04T06:33:14.055Z,8.60
2023-11-04T06:35:43.353Z,8.60
2023-11-04T06:38:13.353Z,8.60
2023-11-04T06:40:43.038Z,8.60
2023-11-04T06:43:11.718Z,8.60
2023-11-04T06:45:40.539Z,8.70
2023-11-04T06:48:09.258Z,8.70
2023-11-04T06:50:39.356Z,8.70
2023-11-04T06:53:08.156Z,8.80
2023-11-04T06:55:37.009Z,8.80
2023-11-04T06:58:05.765Z,8.80
2023-11-04T07:00:35.138Z,8.80
2023-11-04T07:03:03.834Z,8.80
2023-11-04T07:05:34.634Z,8.80
2023-11-04T07:08:04.949Z,8.90
2023-11-04T07:10:38.461Z,9.00
2023-11-04T07:13:09.364Z,8.90
2023-11-04T07:15:38.720Z,9.00
2023-11-04T07:18:09.025Z,9.00
2023-11-04T07:20:41.256Z,9.00
2023-11-04T07:23:12.027Z,9.00
2023-11-04T07:25:40.877Z,9.10
2023-11-04T07:28:09.733Z,9.10
2023-11-04T07:30:41.574Z,9.20
2023-11-04T07:33:10.981Z,9.10
2023-11-04T07:35:42.496Z,9.20
2023-11-04T07:38:12.501Z,9.20
2023-11-04T07:40:41.173Z,9.30
2023-11-04T07:43:09.937Z,9.30
2023-11-04T07:45:38.982Z,9.40
2023-11-04T07:48:08.130Z,9.40
2023-11-04T07:50:37.829Z,9.50
2023-11-04T07:53:06.447Z,9.50
2023-11-04T07:55:36.509Z,9.60
2023-11-04T07:58:06.114Z,9.60
2023-11-04T08:00:35.026Z,9.70
2023-11-04T08:03:05.102Z,9.70
2023-11-04T08:05:34.771Z,9.70
2023-11-04T08:08:03.538Z,9.70
2023-11-04T08:10:32.361Z,9.80
2023-11-04T08:13:07.205Z,9.80
2023-11-04T08:15:36.634Z,9.80
2023-11-04T08:18:05.400Z,9.90
2023-11-04T08:20:34.098Z,9.90
2023-11-04T08:23:02.731Z,10.00
2023-11-04T08:25:31.436Z,10.10
2023-11-04T08:28:02.093Z,10.10
2023-11-04T08:30:31.308Z,10.20
2023-11-04T08:33:00.242Z,10.20
2023-11-04T08:35:29.013Z,10.20
2023-11-04T08:37:58.027Z,10.20
2023-11-04T08:40:26.770Z,10.20
2023-11-04T08:42:55.579Z,10.20
2023-11-04T08:45:25.599Z,10.30
2023-11-04T08:47:54.250Z,10.40
2023-11-04T08:50:23.047Z,10.60
2023-11-04T08:52:51.672Z,10.80
2023-11-04T08:55:20.390Z,10.90
2023-11-04T08:57:49.311Z,10.90
2023-11-04T09:00:18.703Z,11.00
2023-11-04T09:02:50.524Z,11.10
2023-11-04T09:05:25.323Z,11.10
2023-11-04T09:07:59.862Z,11.20
2023-11-04T09:10:28.646Z,11.20
2023-11-04T09:12:58.403Z,11.10
2023-11-04T09:15:40.810Z,11.10
2023-11-04T09:18:25.356Z,11.10
2023-11-04T09:21:12.532Z,11.10
2023-11-04T09:23:47.180Z,11.20
2023-11-04T09:26:15.966Z,11.20
2023-11-04T09:28:44.626Z,11.10
2023-11-04T09:31:14.340Z,11.10
2023-11-04T09:33:44.764Z,11.20
2023-11-04T09:36:14.243Z,11.20
2023-11-04T09:38:42.922Z,11.30
2023-11-04T09:41:12.882Z,11.30
2023-11-04T09:43:42.042Z,11.40
2023-11-04T09:46:11.953Z,11.40
2023-11-04T09:48:42.050Z,11.50
2023-11-04T09:51:15.592Z,11.50
2023-11-04T09:53:53.133Z,11.60
2023-11-04T09:56:23.915Z,11.60
2023-11-04T09:58:52.894Z,11.50
2023-11-04T10:01:21.618Z,11.50
2023-11-04T10:03:52.162Z,11.60
2023-11-04T10:06:24.060Z,11.60
2023-11-04T10:08:52.789Z,11.70
2023-11-04T10:11:21.382Z,11.80
2023-11-04T10:13:52.976Z,11.80
2023-11-04T10:16:23.369Z,11.80
2023-11-04T10:18:52.121Z,11.80
2023-11-04T10:21:23.476Z,11.70
2023-11-04T10:23:52.342Z,11.60
2023-11-04T10:26:24.068Z,11.60
2023-11-04T10:28:55.688Z,11.50
2023-11-04T10:31:27.192Z,11.60
2023-11-04T10:34:00.787Z,11.70
2023-11-04T10:36:33.831Z,11.70
2023-11-04T10:39:05.360Z,11.50
2023-11-04T10:41:47.209Z,11.80
2023-11-04T10:44:18.500Z,11.90
2023-11-04T10:46:55.484Z,11.80
2023-11-04T10:49:29.481Z,11.80
2023-11-04T10:52:05.838Z,11.90
2023-11-04T10:54:43.234Z,11.90
2023-11-04T10:57:22.582Z,12.00
2023-11-04T11:00:04.081Z,12.00
2023-11-04T11:02:35.117Z,11.90
2023-11-04T11:05:05.709Z,11.80
2023-11-04T11:07:39.024Z,11.60
2023-11-04T11:10:10.375Z,11.50
2023-11-04T11:12:47.632Z,11.40
2023-11-04T11:15:17.497Z,11.40
2023-11-04T11:17:46.364Z,11.50
2023-11-04T11:20:29.792Z,11.60
2023-11-04T11:23:01.427Z,11.70
2023-11-04T11:25:37.400Z,11.80
2023-11-04T11:28:21.880Z,11.90
2023-11-04T11:30:58.520Z,12.00
2023-11-04T11:33:31.447Z,12.10
2023-11-04T11:36:02.252Z,12.00
2023-11-04T11:38:33.499Z,12.00
2023-11-04T11:41:06.614Z,12.10
2023-11-04T11:43:39.252Z,12.10
2023-11-04T11:46:09.963Z,12.20
2023-11-04T11:48:40.354Z,12.20
2023-11-04T11:51:12.940Z,12.40
2023-11-04T11:53:46.530Z,12.50
2023-11-04T11:56:17.119Z,12.60
2023-11-04T11:58:46.957Z,12.80
2023-11-04T12:01:17.405Z,12.90
2023-11-04T12:03:46.355Z,13.10
2023-11-04T12:06:15.397Z,13.10
2023-11-04T12:08:48.371Z,13.10
2023-11-04T12:11:17.151Z,13.10
2023-11-04T12:13:45.889Z,13.10
2023-11-04T12:16:14.630Z,13.10
2023-11-04T12:18:43.563Z,13.10
2023-11-04T12:21:13.742Z,13.10
2023-11-04T12:23:42.973Z,13.10
2023-11-04T12:26:13.267Z,13.10
2023-11-04T12:28:42.883Z,13.20
2023-11-04T12:31:14.250Z,13.10
2023-11-04T12:33:46.548Z,13.20
2023-11-04T12:36:16.292Z,13.10
2023-11-04T12:38:47.866Z,13.00
2023-11-04T12:41:20.465Z,12.80
2023-11-04T12:43:52.714Z,12.70
2023-11-04T12:46:23.760Z,12.50
2023-11-04T12:48:52.879Z,12.30
2023-11-04T12:51:22.469Z,12.10
2023-11-04T12:53:51.404Z,12.00
2023-11-04T12:56:24.551Z,11.90
2023-11-04T12:58:54.816Z,11.90
2023-11-04T13:01:23.701Z,11.90
2023-11-04T13:03:52.824Z,11.90
2023-11-04T13:06:21.728Z,11.90
2023-11-04T13:08:50.474Z,11.90
2023-11-04T13:11:21.065Z,11.90
2023-11-04T13:13:49.899Z,11.90
2023-11-04T13:16:18.866Z,11.90
2023-11-04T13:18:47.815Z,11.70
2023-11-04T13:21:17.540Z,11.70
2023-11-04T13:23:46.638Z,11.70
2023-11-04T13:26:15.533Z,11.70
2023-11-04T13:28:45.753Z,11.70
2023-11-04T13:31:14.386Z,11.70
2023-11-04T13:33:43.524Z,11.80
2023-11-04T13:36:12.619Z,11.80
2023-11-04T13:38:41.213Z,11.80
2023-11-04T13:41:12.370Z,11.70
2023-11-04T13:43:40.942Z,11.70
2023-11-04T13:46:11.636Z,11.70
2023-11-04T13:48:40.325Z,11.70
2023-11-04T13:51:11.316Z,11.70
2023-11-04T13:53:40.091Z,11.70
2023-11-04T13:56:09.400Z,11.70
2023-11-04T13:58:38.019Z,11.70
2023-11-04T14:01:06.744Z,11.70
2023-11-04T14:03:37.587Z,11.60
2023-11-04T14:06:07.292Z,11.50
2023-11-04T14:08:36.206Z,11.30
2023-11-04T14:11:05.227Z,11.10
2023-11-04T14:13:34.188Z,10.70
2023-11-04T14:16:03.404Z,10.90
2023-11-04T14:18:32.235Z,10.80
2023-11-04T14:21:07.236Z,10.80
2023-11-04T14:23:35.998Z,10.80
2023-11-04T14:26:05.453Z,10.80
2023-11-04T14:28:34.149Z,10.80
2023-11-04T14:31:03.124Z,10.70
2023-11-04T14:33:32.093Z,10.70
2023-11-04T14:36:02.384Z,10.70
2023-11-04T14:38:30.953Z,10.70
2023-11-04T14:41:02.048Z,10.70
2023-11-04T14:43:31.772Z,10.80
2023-11-04T14:46:04.266Z,10.80
2023-11-04T14:48:37.260Z,10.80
2023-11-04T14:51:08.191Z,10.80
2023-11-04T14:53:36.801Z,10.80
2023-11-04T14:56:06.026Z,10.70
2023-11-04T14:58:34.763Z,10.80
2023-11-04T15:01:04.570Z,10.70
2023-11-04T15:03:33.220Z,10.70
2023-11-04T15:06:01.887Z,10.60
2023-11-04T15:08:31.939Z,10.60
2023-11-04T15:11:00.629Z,10.50
2023-11-04T15:13:29.550Z,10.50
2023-11-04T15:15:58.514Z,10.50
2023-11-04T15:18:27.362Z,10.50
2023-11-04T15:20:56.131Z,10.50
2023-11-04T15:23:24.819Z,10.40
2023-11-04T15:25:54.904Z,10.30
2023-11-04T15:28:24.764Z,10.20
2023-11-04T15:30:53.647Z,10.10
2023-11-04T15:33:22.438Z,9.90
2023-11-04T15:35:51.182Z,9.80
2023-11-04T15:38:22.114Z,9.60
2023-11-04T15:40:53.378Z,9.50
2023-11-04T15:43:23.652Z,9.30
2023-11-04T15:45:52.581Z,9.10
2023-11-04T15:48:22.715Z,8.90
2023-11-04T15:50:55.463Z,8.70
2023-11-04T15:53:24.609Z,8.60
2023-11-04T15:55:55.029Z,8.50
2023-11-04T15:58:26.537Z,8.40
2023-11-04T16:00:56.405Z,8.40
2023-11-04T16:03:25.782Z,8.20
2023-11-04T16:05:55.304Z,8.20
2023-11-04T16:08:24.506Z,8.00
2023-11-04T16:10:54.897Z,8.00
2023-11-04T16:13:25.113Z,7.90
2023-11-04T16:15:53.909Z,7.80
2023-11-04T16:18:23.745Z,7.70
2023-11-04T16:20:52.443Z,7.60
2023-11-04T16:23:21.281Z,7.50
2023-11-04T16:25:50.543Z,7.50
2023-11-04T16:28:19.496Z,7.30
2023-11-04T16:30:55.141Z,7.30
2023-11-04T16:33:24.613Z,7.20
2023-11-04T16:35:53.457Z,7.10
2023-11-04T16:38:22.311Z,7.00
2023-11-04T16:40:52.388Z,6.90
2023-11-04T16:43:21.204Z,6.80
2023-11-04T16:45:51.691Z,6.80
2023-11-04T16:48:24.538Z,6.70
2023-11-04T16:50:53.523Z,6.60
2023-11-04T16:53:29.829Z,6.60
2023-11-04T16:55:58.896Z,6.60
2023-11-04T16:58:37.961Z,6.40
2023-11-04T17:01:08.975Z,6.40
2023-11-04T17:03:38.168Z,6.40
2023-11-04T17:06:07.535Z,6.40
2023-11-04T17:08:36.557Z,6.40
2023-11-04T17:11:07.537Z,6.40
2023-11-04T17:13:36.440Z,6.40
2023-11-04T17:16:05.649Z,6.30
2023-11-04T17:18:36.924Z,6.30
2023-11-04T17:21:06.594Z,6.30
2023-11-04T17:23:35.530Z,6.30
2023-11-04T17:26:06.758Z,6.30
2023-11-04T17:28:36.312Z,6.30
2023-11-04T17:31:05.266Z,6.30
2023-11-04T17:33:35.607Z,6.30
2023-11-04T17:36:05.108Z,6.30
2023-11-04T17:38:34.161Z,6.20
2023-11-04T17:41:02.880Z,6.20
2023-11-04T17:43:31.591Z,6.20
2023-11-04T17:46:01.835Z,6.20
2023-11-04T17:48:31.877Z,6.20
2023-11-04T17:51:04.995Z,6.10
2023-11-04T17:53:33.659Z,6.10
2023-11-04T17:56:02.491Z,6.00
2023-11-04T17:58:34.105Z,6.00
2023-11-04T18:01:03.027Z,6.00
2023-11-04T18:03:34.904Z,5.90
2023-11-04T18:06:05.518Z,5.90
2023-11-04T18:08:34.257Z,5.80
2023-11-04T18:11:03.546Z,5.80
2023-11-04T18:13:36.709Z,5.80
2023-11-04T18:16:11.868Z,5.80
2023-11-04T18:18:40.711Z,5.80
2023-11-04T18:21:11.642Z,5.80
2023-11-04T18:23:40.459Z,5.80
2023-11-04T18:26:09.250Z,5.80
2023-11-04T18:28:38.391Z,5.80
2023-11-04T18:31:08.172Z,5.80
2023-11-04T18:33:37.095Z,5.80
2023-11-04T18:36:07.308Z,5.80
2023-11-04T18:38:39.833Z,5.90
2023-11-04T18:41:09.797Z,5.80
2023-11-04T18:43:38.673Z,5.80
2023-11-04T18:46:08.445Z,5.80
2023-11-04T18:48:38.193Z,5.70
2023-11-04T18:51:07.575Z,5.80
2023-11-04T18:53:37.761Z,5.80
2023-11-04T18:56:07.479Z,5.80
2023-11-04T18:58:38.033Z,5.80
2023-11-04T19:01:07.521Z,5.80
2023-11-04T19:03:37.315Z,5.80
2023-11-04T19:06:07.118Z,5.80
2023-11-04T19:08:41.548Z,5.90
2023-11-04T19:11:11.667Z,5.80
2023-11-04T19:13:40.576Z,5.80
2023-11-04T19:16:09.971Z,5.80
2023-11-04T19:18:41.615Z,5.80
2023-11-04T19:21:11.558Z,5.70
2023-11-04T19:23:41.921Z,5.70
2023-11-04T19:26:10.491Z,5.70
2023-11-04T19:28:42.088Z,5.70
2023-11-04T19:31:10.894Z,5.60
2023-11-04T19:33:39.628Z,5.60
2023-11-04T19:36:09.980Z,5.50
2023-11-04T19:38:40.837Z,5.40
2023-11-04T19:41:10.044Z,5.40
2023-11-04T19:43:38.984Z,5.40
2023-11-04T19:46:08.818Z,5.30
2023-11-04T19:48:37.626Z,5.20
2023-11-04T19:51:07.854Z,5.20
2023-11-04T19:53:36.644Z,5.10
2023-11-04T19:56:07.605Z,5.00
2023-11-04T19:58:38.144Z,5.00
2023-11-04T20:01:07.670Z,4.90
2023-11-04T20:03:38.122Z,4.80
2023-11-04T20:06:13.130Z,4.80
2023-11-04T20:08:49.996Z,4.70
2023-11-04T20:11:23.640Z,4.70
2023-11-04T20:13:52.905Z,4.60
2023-11-04T20:16:39.954Z,4.60
2023-11-04T20:19:08.650Z,4.50
2023-11-04T20:21:37.436Z,4.50
2023-11-04T20:24:06.597Z,4.40
2023-11-04T20:26:37.070Z,4.30
2023-11-04T20:29:05.862Z,4.30
2023-11-04T20:31:34.531Z,4.30
2023-11-04T20:34:03.513Z,4.20
2023-11-04T20:36:32.570Z,4.20
2023-11-04T20:39:01.198Z,4.20
2023-11-04T20:41:34.535Z,4.20
2023-11-04T20:44:08.520Z,4.10
2023-11-04T20:46:37.734Z,4.10
2023-11-04T20:49:06.870Z,4.10
2023-11-04T20:51:36.712Z,4.20
2023-11-04T20:54:06.512Z,4.20
2023-11-04T20:56:35.254Z,4.10
2023-11-04T20:59:07.426Z,4.10
2023-11-04T21:01:36.314Z,4.10
2023-11-04T21:04:08.232Z,4.10
2023-11-04T21:06:37.327Z,4.20
2023-11-04T21:09:06.432Z,4.10
2023-11-04T21:11:35.411Z,4.10
2023-11-04T21:14:20.093Z,4.10
2023-11-04T21:16:48.834Z,4.00
2023-11-04T21:19:23.792Z,3.90
2023-11-04T21:21:52.761Z,3.90
2023-11-04T21:24:21.619Z,3.80
2023-11-04T21:26:50.539Z,3.70
2023-11-04T21:29:20.998Z,3.70
2023-11-04T21:31:51.823Z,3.70
2023-11-04T21:34:20.748Z,3.70
2023-11-04T21:36:49.776Z,3.80
2023-11-04T21:39:28.033Z,3.80
2023-11-04T21:41:58.198Z,3.80
2023-11-04T21:44:31.839Z,3.80
2023-11-04T21:47:15.861Z,3.80
2023-11-04T21:49:48.348Z,3.90
2023-11-04T21:52:19.719Z,3.90
2023-11-04T21:54:56.934Z,3.90
2023-11-04T21:57:28.117Z,3.70
2023-11-04T22:00:00.894Z,3.90
2023-11-04T22:02:32.838Z,3.90
2023-11-04T22:05:01.952Z,4.00
2023-11-04T22:07:33.046Z,4.00
2023-11-04T22:10:02.583Z,4.00
2023-11-04T22:12:31.480Z,3.90
2023-11-04T22:15:02.229Z,3.90
2023-11-04T22:17:36.348Z,3.80
2023-11-04T22:20:06.716Z,3.80
2023-11-04T22:22:35.647Z,3.80
2023-11-04T22:25:04.920Z,3.70
2023-11-04T22:27:33.934Z,3.70
2023-11-04T22:30:04.700Z,3.60
2023-11-04T22:32:35.943Z,3.60
2023-11-04T22:35:05.066Z,3.60
2023-11-04T22:37:40.810Z,3.50
2023-11-04T22:40:10.773Z,3.50
2023-11-04T22:42:51.908Z,3.40
2023-11-04T22:45:22.497Z,3.40
2023-11-04T22:47:52.661Z,3.30
2023-11-04T22:50:33.483Z,3.30
2023-11-04T22:53:05.435Z,3.30
2023-11-04T22:55:41.261Z,3.30
2023-11-04T22:58:11.515Z,3.30
2023-11-04T23:00:51.673Z,3.20
2023-11-04T23:03:20.980Z,3.20
2023-11-04T23:05:53.717Z,3.10
2023-11-04T23:08:22.880Z,3.10
2023-11-04T23:10:52.176Z,3.00
2023-11-04T23:13:21.606Z,3.00
2023-11-04T23:15:53.795Z,3.00
2023-11-04T23:18:23.208Z,3.00
2023-11-04T23:20:52.448Z,2.90
2023-11-04T23:23:21.309Z,2.80
2023-11-04T23:25:53.580Z,2.80
2023-11-04T23:28:24.929Z,2.80
2023-11-04T23:31:33.174Z,2.80
2023-11-04T23:34:02.355Z,2.80
2023-11-04T23:36:31.689Z,2.70
2023-11-04T23:39:00.725Z,2.70
2023-11-04T23:41:29.922Z,2.70
2023-11-04T23:43:59.134Z,2.70
2023-11-04T23:46:30.223Z,2.70
2023-11-04T23:48:59.290Z,2.70
2023-11-04T23:51:28.342Z,2.70
2023-11-04T23:53:57.161Z,2.70
2023-11-04T23:56:26.034Z,2.70
2023-11-04T23:58:54.905Z,2.70
